sensor_id;sensor_type;location;lat;lon;timestamp;temperature;humidity
37204;DHT22;23098;48.054;10.636;2022-12-07T00:01:06;2.20;99.90
37204;DHT22;23098;48.054;10.636;2022-12-07T00:03:33;2.20;99.90
37204;DHT22;23098;48.054;10.636;2022-12-07T00:05:59;2.20;99.90
37204;DHT22;23098;48.054;10.636;2022-12-07T00:08:25;2.20;99.90
37204;DHT22;23098;48.054;10.636;2022-12-07T00:10:50;2.20;99.90
37204;DHT22;23098;48.054;10.636;2022-12-07T00:13:16;2.20;99.90
37204;DHT22;23098;48.054;10.636;2022-12-07T00:15:41;2.20;99.90
37204;DHT22;23098;48.054;10.636;2022-12-07T00:18:07;2.20;99.90
37204;DHT22;23098;48.054;10.636;2022-12-07T00:20:32;2.20;99.90
37204;DHT22;23098;48.054;10.636;2022-12-07T00:22:58;2.20;99.90
37204;DHT22;23098;48.054;10.636;2022-12-07T00:25:24;2.20;99.90
37204;DHT22;23098;48.054;10.636;2022-12-07T00:27:49;2.20;99.90
37204;DHT22;23098;48.054;10.636;2022-12-07T00:30:15;2.20;99.90
37204;DHT22;23098;48.054;10.636;2022-12-07T00:32:41;2.20;99.90
37204;DHT22;23098;48.054;10.636;2022-12-07T00:35:06;2.20;99.90
37204;DHT22;23098;48.054;10.636;2022-12-07T00:37:32;2.20;99.90
37204;DHT22;23098;48.054;10.636;2022-12-07T00:39:57;2.10;99.90
37204;DHT22;23098;48.054;10.636;2022-12-07T00:42:23;2.20;99.90
37204;DHT22;23098;48.054;10.636;2022-12-07T00:44:48;2.20;99.90
37204;DHT22;23098;48.054;10.636;2022-12-07T00:47:14;2.10;99.90
37204;DHT22;23098;48.054;10.636;2022-12-07T00:49:39;2.10;99.90
37204;DHT22;23098;48.054;10.636;2022-12-07T00:52:05;2.10;99.90
37204;DHT22;23098;48.054;10.636;2022-12-07T00:54:30;2.10;99.90
37204;DHT22;23098;48.054;10.636;2022-12-07T00:56:56;2.10;99.90
37204;DHT22;23098;48.054;10.636;2022-12-07T00:59:21;2.10;99.90
37204;DHT22;23098;48.054;10.636;2022-12-07T01:01:47;2.10;99.90
37204;DHT22;23098;48.054;10.636;2022-12-07T01:04:13;2.20;99.90
37204;DHT22;23098;48.054;10.636;2022-12-07T01:06:38;2.20;99.90
37204;DHT22;23098;48.054;10.636;2022-12-07T01:09:04;2.20;99.90
37204;DHT22;23098;48.054;10.636;2022-12-07T01:11:31;2.20;99.90
37204;DHT22;23098;48.054;10.636;2022-12-07T01:13:58;2.20;99.90
37204;DHT22;23098;48.054;10.636;2022-12-07T01:16:25;2.20;99.90
37204;DHT22;23098;48.054;10.636;2022-12-07T01:18:53;2.10;99.90
37204;DHT22;23098;48.054;10.636;2022-12-07T01:21:30;2.10;99.90
37204;DHT22;23098;48.054;10.636;2022-12-07T01:24:00;2.20;99.90
37204;DHT22;23098;48.054;10.636;2022-12-07T01:26:26;2.10;99.90
37204;DHT22;23098;48.054;10.636;2022-12-07T01:28:53;2.10;99.90
37204;DHT22;23098;48.054;10.636;2022-12-07T01:31:21;2.10;99.90
37204;DHT22;23098;48.054;10.636;2022-12-07T01:33:50;2.10;99.90
37204;DHT22;23098;48.054;10.636;2022-12-07T01:36:20;2.10;99.90
37204;DHT22;23098;48.054;10.636;2022-12-07T01:38:47;2.10;99.90
37204;DHT22;23098;48.054;10.636;2022-12-07T01:41:13;2.10;99.90
37204;DHT22;23098;48.054;10.636;2022-12-07T01:44:31;2.10;99.90
37204;DHT22;23098;48.054;10.636;2022-12-07T01:46:51;2.00;99.90
37204;DHT22;23098;48.054;10.636;2022-12-07T01:49:31;2.00;99.90
37204;DHT22;23098;48.054;10.636;2022-12-07T01:52:08;2.00;99.90
37204;DHT22;23098;48.054;10.636;2022-12-07T01:54:35;2.00;99.90
37204;DHT22;23098;48.054;10.636;2022-12-07T01:57:01;2.00;99.90
37204;DHT22;23098;48.054;10.636;2022-12-07T01:59:28;1.90;99.90
37204;DHT22;23098;48.054;10.636;2022-12-07T02:01:55;1.90;99.90
37204;DHT22;23098;48.054;10.636;2022-12-07T02:04:22;1.90;99.90
37204;DHT22;23098;48.054;10.636;2022-12-07T02:06:48;1.90;99.90
37204;DHT22;23098;48.054;10.636;2022-12-07T02:09:14;2.00;99.90
37204;DHT22;23098;48.054;10.636;2022-12-07T02:11:40;1.90;99.90
37204;DHT22;23098;48.054;10.636;2022-12-07T02:14:06;1.90;99.90
37204;DHT22;23098;48.054;10.636;2022-12-07T02:25:44;1.90;99.90
37204;DHT22;23098;48.054;10.636;2022-12-07T02:28:37;1.90;99.90
37204;DHT22;23098;48.054;10.636;2022-12-07T02:31:11;1.80;99.90
37204;DHT22;23098;48.054;10.636;2022-12-07T02:33:45;1.90;99.90
37204;DHT22;23098;48.054;10.636;2022-12-07T02:36:42;1.90;99.90
37204;DHT22;23098;48.054;10.636;2022-12-07T02:39:20;1.90;99.90
37204;DHT22;23098;48.054;10.636;2022-12-07T02:41:52;1.90;99.90
37204;DHT22;23098;48.054;10.636;2022-12-07T02:44:23;1.80;99.90
37204;DHT22;23098;48.054;10.636;2022-12-07T02:47:01;1.80;99.90
37204;DHT22;23098;48.054;10.636;2022-12-07T02:49:28;1.80;99.90
37204;DHT22;23098;48.054;10.636;2022-12-07T02:51:54;1.80;99.90
37204;DHT22;23098;48.054;10.636;2022-12-07T02:54:21;1.80;99.90
37204;DHT22;23098;48.054;10.636;2022-12-07T02:57:02;1.80;99.90
37204;DHT22;23098;48.054;10.636;2022-12-07T02:59:50;1.80;99.90
37204;DHT22;23098;48.054;10.636;2022-12-07T03:02:35;1.70;99.90
37204;DHT22;23098;48.054;10.636;2022-12-07T03:05:28;1.70;99.90
37204;DHT22;23098;48.054;10.636;2022-12-07T03:11:07;1.60;99.90
37204;DHT22;23098;48.054;10.636;2022-12-07T03:16:22;1.50;99.90
37204;DHT22;23098;48.054;10.636;2022-12-07T03:19:14;1.50;99.90
37204;DHT22;23098;48.054;10.636;2022-12-07T03:21:40;1.60;99.90
37204;DHT22;23098;48.054;10.636;2022-12-07T03:24:11;1.50;99.90
37204;DHT22;23098;48.054;10.636;2022-12-07T03:26:42;1.50;99.90
37204;DHT22;23098;48.054;10.636;2022-12-07T03:29:24;1.50;99.90
37204;DHT22;23098;48.054;10.636;2022-12-07T03:32:13;1.50;99.90
37204;DHT22;23098;48.054;10.636;2022-12-07T03:34:46;1.50;99.90
37204;DHT22;23098;48.054;10.636;2022-12-07T03:37:19;1.50;99.90
37204;DHT22;23098;48.054;10.636;2022-12-07T03:42:21;1.50;99.90
37204;DHT22;23098;48.054;10.636;2022-12-07T03:44:47;1.50;99.90
37204;DHT22;23098;48.054;10.636;2022-12-07T03:47:29;1.50;99.90
37204;DHT22;23098;48.054;10.636;2022-12-07T03:50:04;1.40;99.90
37204;DHT22;23098;48.054;10.636;2022-12-07T03:52:52;1.40;99.90
37204;DHT22;23098;48.054;10.636;2022-12-07T03:55:27;1.40;99.90
37204;DHT22;23098;48.054;10.636;2022-12-07T03:57:56;1.40;99.90
37204;DHT22;23098;48.054;10.636;2022-12-07T04:00:23;1.30;99.90
37204;DHT22;23098;48.054;10.636;2022-12-07T04:02:55;1.30;99.90
37204;DHT22;23098;48.054;10.636;2022-12-07T04:05:20;1.20;99.90
37204;DHT22;23098;48.054;10.636;2022-12-07T04:07:46;1.20;99.90
37204;DHT22;23098;48.054;10.636;2022-12-07T04:10:12;1.20;99.90
37204;DHT22;23098;48.054;10.636;2022-12-07T04:12:37;1.20;99.90
37204;DHT22;23098;48.054;10.636;2022-12-07T04:15:04;1.20;99.90
37204;DHT22;23098;48.054;10.636;2022-12-07T04:17:29;1.10;99.90
37204;DHT22;23098;48.054;10.636;2022-12-07T04:19:55;1.10;99.90
37204;DHT22;23098;48.054;10.636;2022-12-07T04:22:21;1.10;99.90
37204;DHT22;23098;48.054;10.636;2022-12-07T04:24:46;1.10;99.90
37204;DHT22;23098;48.054;10.636;2022-12-07T04:27:12;1.10;99.90
37204;DHT22;23098;48.054;10.636;2022-12-07T04:29:38;1.10;99.90
37204;DHT22;23098;48.054;10.636;2022-12-07T04:32:03;1.10;99.90
37204;DHT22;23098;48.054;10.636;2022-12-07T04:34:29;1.10;99.90
37204;DHT22;23098;48.054;10.636;2022-12-07T04:36:55;1.10;99.90
37204;DHT22;23098;48.054;10.636;2022-12-07T04:39:26;1.10;99.90
37204;DHT22;23098;48.054;10.636;2022-12-07T04:41:52;1.00;99.90
37204;DHT22;23098;48.054;10.636;2022-12-07T04:44:18;1.10;99.90
37204;DHT22;23098;48.054;10.636;2022-12-07T04:46:44;1.00;99.90
37204;DHT22;23098;48.054;10.636;2022-12-07T04:49:11;1.10;99.90
37204;DHT22;23098;48.054;10.636;2022-12-07T04:51:37;1.10;99.90
37204;DHT22;23098;48.054;10.636;2022-12-07T04:54:02;1.10;99.90
37204;DHT22;23098;48.054;10.636;2022-12-07T04:56:28;1.00;99.90
37204;DHT22;23098;48.054;10.636;2022-12-07T04:58:54;1.10;99.90
37204;DHT22;23098;48.054;10.636;2022-12-07T05:01:21;1.10;99.90
37204;DHT22;23098;48.054;10.636;2022-12-07T05:03:47;1.10;99.90
37204;DHT22;23098;48.054;10.636;2022-12-07T05:06:13;1.10;99.90
37204;DHT22;23098;48.054;10.636;2022-12-07T05:08:39;1.10;99.90
37204;DHT22;23098;48.054;10.636;2022-12-07T05:11:06;1.10;99.90
37204;DHT22;23098;48.054;10.636;2022-12-07T05:13:32;1.10;99.90
37204;DHT22;23098;48.054;10.636;2022-12-07T05:15:58;1.10;99.90
37204;DHT22;23098;48.054;10.636;2022-12-07T05:18:23;1.10;99.90
37204;DHT22;23098;48.054;10.636;2022-12-07T05:20:49;1.10;99.90
37204;DHT22;23098;48.054;10.636;2022-12-07T05:23:16;1.10;99.90
37204;DHT22;23098;48.054;10.636;2022-12-07T05:25:42;1.10;99.90
37204;DHT22;23098;48.054;10.636;2022-12-07T05:28:08;1.10;99.90
37204;DHT22;23098;48.054;10.636;2022-12-07T05:30:34;1.10;99.90
37204;DHT22;23098;48.054;10.636;2022-12-07T05:32:59;1.10;99.90
37204;DHT22;23098;48.054;10.636;2022-12-07T05:35:25;1.10;99.90
37204;DHT22;23098;48.054;10.636;2022-12-07T05:37:50;1.20;99.90
37204;DHT22;23098;48.054;10.636;2022-12-07T05:40:16;1.20;99.90
37204;DHT22;23098;48.054;10.636;2022-12-07T05:42:42;1.20;99.90
37204;DHT22;23098;48.054;10.636;2022-12-07T05:45:08;1.20;99.90
37204;DHT22;23098;48.054;10.636;2022-12-07T05:47:35;1.20;99.90
37204;DHT22;23098;48.054;10.636;2022-12-07T05:50:01;1.20;99.90
37204;DHT22;23098;48.054;10.636;2022-12-07T05:52:27;1.20;99.90
37204;DHT22;23098;48.054;10.636;2022-12-07T05:54:52;1.20;99.90
37204;DHT22;23098;48.054;10.636;2022-12-07T05:57:19;1.20;99.90
37204;DHT22;23098;48.054;10.636;2022-12-07T05:59:44;1.30;99.90
37204;DHT22;23098;48.054;10.636;2022-12-07T06:02:13;1.20;99.90
37204;DHT22;23098;48.054;10.636;2022-12-07T06:04:42;1.20;99.90
37204;DHT22;23098;48.054;10.636;2022-12-07T06:07:09;1.30;99.90
37204;DHT22;23098;48.054;10.636;2022-12-07T06:09:35;1.30;99.90
37204;DHT22;23098;48.054;10.636;2022-12-07T06:12:01;1.20;99.90
37204;DHT22;23098;48.054;10.636;2022-12-07T06:14:46;1.30;99.90
37204;DHT22;23098;48.054;10.636;2022-12-07T06:17:12;1.30;99.90
37204;DHT22;23098;48.054;10.636;2022-12-07T06:19:38;1.30;99.90
37204;DHT22;23098;48.054;10.636;2022-12-07T06:22:04;1.30;99.90
37204;DHT22;23098;48.054;10.636;2022-12-07T06:24:31;1.30;99.90
37204;DHT22;23098;48.054;10.636;2022-12-07T06:26:56;1.30;99.90
37204;DHT22;23098;48.054;10.636;2022-12-07T06:29:22;1.30;99.90
37204;DHT22;23098;48.054;10.636;2022-12-07T06:31:47;1.30;99.90
37204;DHT22;23098;48.054;10.636;2022-12-07T06:34:16;1.30;99.90
37204;DHT22;23098;48.054;10.636;2022-12-07T06:36:42;1.30;99.90
37204;DHT22;23098;48.054;10.636;2022-12-07T06:39:08;1.30;99.90
37204;DHT22;23098;48.054;10.636;2022-12-07T06:41:37;1.40;99.90
37204;DHT22;23098;48.054;10.636;2022-12-07T06:44:05;1.30;99.90
37204;DHT22;23098;48.054;10.636;2022-12-07T06:46:30;1.30;99.90
37204;DHT22;23098;48.054;10.636;2022-12-07T06:48:56;1.30;99.90
37204;DHT22;23098;48.054;10.636;2022-12-07T06:51:21;1.30;99.90
37204;DHT22;23098;48.054;10.636;2022-12-07T06:53:48;1.40;99.90
37204;DHT22;23098;48.054;10.636;2022-12-07T06:56:14;1.40;99.90
37204;DHT22;23098;48.054;10.636;2022-12-07T06:58:40;1.40;99.90
37204;DHT22;23098;48.054;10.636;2022-12-07T07:01:10;1.40;99.90
37204;DHT22;23098;48.054;10.636;2022-12-07T07:03:38;1.40;99.90
37204;DHT22;23098;48.054;10.636;2022-12-07T07:06:04;1.40;99.90
37204;DHT22;23098;48.054;10.636;2022-12-07T07:08:30;1.40;99.90
37204;DHT22;23098;48.054;10.636;2022-12-07T07:10:56;1.40;99.90
37204;DHT22;23098;48.054;10.636;2022-12-07T07:13:21;1.40;99.90
37204;DHT22;23098;48.054;10.636;2022-12-07T07:15:47;1.40;99.90
37204;DHT22;23098;48.054;10.636;2022-12-07T07:18:12;1.40;99.90
37204;DHT22;23098;48.054;10.636;2022-12-07T07:20:38;1.40;99.90
37204;DHT22;23098;48.054;10.636;2022-12-07T07:23:04;1.50;99.90
37204;DHT22;23098;48.054;10.636;2022-12-07T07:25:31;1.50;99.90
37204;DHT22;23098;48.054;10.636;2022-12-07T07:27:57;1.40;99.90
37204;DHT22;23098;48.054;10.636;2022-12-07T07:30:23;1.50;99.90
37204;DHT22;23098;48.054;10.636;2022-12-07T07:32:49;1.50;99.90
37204;DHT22;23098;48.054;10.636;2022-12-07T07:35:14;1.50;99.90
37204;DHT22;23098;48.054;10.636;2022-12-07T07:37:40;1.50;99.90
37204;DHT22;23098;48.054;10.636;2022-12-07T07:40:07;1.50;99.90
37204;DHT22;23098;48.054;10.636;2022-12-07T07:42:33;1.50;99.90
37204;DHT22;23098;48.054;10.636;2022-12-07T07:44:58;1.50;99.90
37204;DHT22;23098;48.054;10.636;2022-12-07T07:47:24;1.50;99.90
37204;DHT22;23098;48.054;10.636;2022-12-07T07:49:49;1.50;99.90
37204;DHT22;23098;48.054;10.636;2022-12-07T07:52:15;1.60;99.90
37204;DHT22;23098;48.054;10.636;2022-12-07T07:54:40;1.60;99.90
37204;DHT22;23098;48.054;10.636;2022-12-07T07:57:06;1.60;99.90
37204;DHT22;23098;48.054;10.636;2022-12-07T07:59:31;1.60;99.90
37204;DHT22;23098;48.054;10.636;2022-12-07T08:01:57;1.60;99.90
37204;DHT22;23098;48.054;10.636;2022-12-07T08:04:22;1.60;99.90
37204;DHT22;23098;48.054;10.636;2022-12-07T08:06:48;1.70;99.90
37204;DHT22;23098;48.054;10.636;2022-12-07T08:09:13;1.70;99.90
37204;DHT22;23098;48.054;10.636;2022-12-07T08:11:39;1.70;99.90
37204;DHT22;23098;48.054;10.636;2022-12-07T08:14:04;1.70;99.90
37204;DHT22;23098;48.054;10.636;2022-12-07T08:16:30;1.80;99.90
37204;DHT22;23098;48.054;10.636;2022-12-07T08:18:55;1.80;99.90
37204;DHT22;23098;48.054;10.636;2022-12-07T08:21:21;1.80;99.90
37204;DHT22;23098;48.054;10.636;2022-12-07T08:23:47;1.80;99.90
37204;DHT22;23098;48.054;10.636;2022-12-07T08:26:14;1.80;99.90
37204;DHT22;23098;48.054;10.636;2022-12-07T08:28:41;1.90;99.90
37204;DHT22;23098;48.054;10.636;2022-12-07T08:31:11;1.90;99.90
37204;DHT22;23098;48.054;10.636;2022-12-07T08:33:37;1.90;99.90
37204;DHT22;23098;48.054;10.636;2022-12-07T08:36:05;2.00;99.90
37204;DHT22;23098;48.054;10.636;2022-12-07T08:38:31;2.00;99.90
37204;DHT22;23098;48.054;10.636;2022-12-07T08:40:58;2.00;99.90
37204;DHT22;23098;48.054;10.636;2022-12-07T08:43:24;2.00;99.90
37204;DHT22;23098;48.054;10.636;2022-12-07T08:48:33;2.10;99.90
37204;DHT22;23098;48.054;10.636;2022-12-07T08:51:01;2.20;99.90
37204;DHT22;23098;48.054;10.636;2022-12-07T08:53:28;2.20;99.90
37204;DHT22;23098;48.054;10.636;2022-12-07T08:55:54;2.20;99.90
37204;DHT22;23098;48.054;10.636;2022-12-07T08:58:20;2.20;99.90
37204;DHT22;23098;48.054;10.636;2022-12-07T09:00:46;2.20;99.90
37204;DHT22;23098;48.054;10.636;2022-12-07T09:03:11;2.20;99.90
37204;DHT22;23098;48.054;10.636;2022-12-07T09:05:37;2.30;99.90
37204;DHT22;23098;48.054;10.636;2022-12-07T09:08:02;2.40;99.90
37204;DHT22;23098;48.054;10.636;2022-12-07T09:10:28;2.40;99.90
37204;DHT22;23098;48.054;10.636;2022-12-07T09:12:54;2.40;99.90
37204;DHT22;23098;48.054;10.636;2022-12-07T09:15:20;2.40;99.90
37204;DHT22;23098;48.054;10.636;2022-12-07T09:17:45;2.50;99.90
37204;DHT22;23098;48.054;10.636;2022-12-07T09:20:11;2.50;99.90
37204;DHT22;23098;48.054;10.636;2022-12-07T09:22:37;2.50;99.90
37204;DHT22;23098;48.054;10.636;2022-12-07T09:25:03;2.70;99.90
37204;DHT22;23098;48.054;10.636;2022-12-07T09:27:29;2.70;99.90
37204;DHT22;23098;48.054;10.636;2022-12-07T09:29:55;2.70;99.90
37204;DHT22;23098;48.054;10.636;2022-12-07T09:32:21;2.70;99.90
37204;DHT22;23098;48.054;10.636;2022-12-07T09:34:47;2.60;99.90
37204;DHT22;23098;48.054;10.636;2022-12-07T09:37:12;2.70;99.90
37204;DHT22;23098;48.054;10.636;2022-12-07T09:39:39;2.80;99.90
37204;DHT22;23098;48.054;10.636;2022-12-07T09:42:05;2.90;99.90
37204;DHT22;23098;48.054;10.636;2022-12-07T09:44:31;3.00;99.90
37204;DHT22;23098;48.054;10.636;2022-12-07T09:46:57;3.10;99.90
37204;DHT22;23098;48.054;10.636;2022-12-07T09:49:25;3.30;99.90
37204;DHT22;23098;48.054;10.636;2022-12-07T09:52:18;3.50;99.90
37204;DHT22;23098;48.054;10.636;2022-12-07T09:54:47;3.30;99.90
37204;DHT22;23098;48.054;10.636;2022-12-07T09:57:13;3.30;99.90
37204;DHT22;23098;48.054;10.636;2022-12-07T09:59:39;3.50;99.90
37204;DHT22;23098;48.054;10.636;2022-12-07T10:02:39;3.60;99.90
37204;DHT22;23098;48.054;10.636;2022-12-07T10:05:10;4.10;99.90
37204;DHT22;23098;48.054;10.636;2022-12-07T10:07:37;4.00;99.90
37204;DHT22;23098;48.054;10.636;2022-12-07T10:10:06;3.80;99.90
37204;DHT22;23098;48.054;10.636;2022-12-07T10:15:19;3.80;99.90
37204;DHT22;23098;48.054;10.636;2022-12-07T10:17:50;3.80;99.90
37204;DHT22;23098;48.054;10.636;2022-12-07T10:20:23;3.70;99.90
37204;DHT22;23098;48.054;10.636;2022-12-07T10:23:13;3.70;99.90
37204;DHT22;23098;48.054;10.636;2022-12-07T10:25:39;3.80;99.90
37204;DHT22;23098;48.054;10.636;2022-12-07T10:31:00;3.90;99.90
37204;DHT22;23098;48.054;10.636;2022-12-07T10:33:34;3.90;99.90
37204;DHT22;23098;48.054;10.636;2022-12-07T10:36:01;3.90;99.90
37204;DHT22;23098;48.054;10.636;2022-12-07T10:38:45;3.90;99.90
37204;DHT22;23098;48.054;10.636;2022-12-07T10:41:10;3.90;99.90
37204;DHT22;23098;48.054;10.636;2022-12-07T10:43:36;3.90;99.90
37204;DHT22;23098;48.054;10.636;2022-12-07T10:46:19;3.90;99.90
37204;DHT22;23098;48.054;10.636;2022-12-07T10:49:17;4.00;99.90
37204;DHT22;23098;48.054;10.636;2022-12-07T10:52:14;4.00;99.90
37204;DHT22;23098;48.054;10.636;2022-12-07T10:55:13;4.00;99.90
37204;DHT22;23098;48.054;10.636;2022-12-07T11:00:21;3.90;99.90
37204;DHT22;23098;48.054;10.636;2022-12-07T11:05:27;3.90;99.90
37204;DHT22;23098;48.054;10.636;2022-12-07T11:07:59;3.80;99.90
37204;DHT22;23098;48.054;10.636;2022-12-07T11:10:42;3.80;99.90
37204;DHT22;23098;48.054;10.636;2022-12-07T11:24:11;3.60;99.90
37204;DHT22;23098;48.054;10.636;2022-12-07T11:29:47;3.40;99.90
37204;DHT22;23098;48.054;10.636;2022-12-07T11:32:45;3.40;99.90
37204;DHT22;23098;48.054;10.636;2022-12-07T11:35:26;3.30;99.90
37204;DHT22;23098;48.054;10.636;2022-12-07T11:37:59;3.30;99.90
37204;DHT22;23098;48.054;10.636;2022-12-07T11:40:30;3.20;99.90
37204;DHT22;23098;48.054;10.636;2022-12-07T11:43:09;3.20;99.90
37204;DHT22;23098;48.054;10.636;2022-12-07T11:45:43;3.10;99.90
37204;DHT22;23098;48.054;10.636;2022-12-07T11:50:59;3.20;99.90
37204;DHT22;23098;48.054;10.636;2022-12-07T11:53:45;3.10;99.90
37204;DHT22;23098;48.054;10.636;2022-12-07T11:56:17;3.10;99.90
37204;DHT22;23098;48.054;10.636;2022-12-07T11:59:02;3.10;99.90
37204;DHT22;23098;48.054;10.636;2022-12-07T12:04:22;3.00;99.90
37204;DHT22;23098;48.054;10.636;2022-12-07T12:06:49;3.00;99.90
37204;DHT22;23098;48.054;10.636;2022-12-07T12:09:26;3.00;99.90
37204;DHT22;23098;48.054;10.636;2022-12-07T12:15:04;2.90;99.90
37204;DHT22;23098;48.054;10.636;2022-12-07T12:18:02;2.90;99.90
37204;DHT22;23098;48.054;10.636;2022-12-07T12:20:45;3.00;99.90
37204;DHT22;23098;48.054;10.636;2022-12-07T12:23:21;3.00;99.90
37204;DHT22;23098;48.054;10.636;2022-12-07T12:25:59;3.10;99.90
37204;DHT22;23098;48.054;10.636;2022-12-07T12:28:39;3.10;99.90
37204;DHT22;23098;48.054;10.636;2022-12-07T12:31:29;3.20;99.90
37204;DHT22;23098;48.054;10.636;2022-12-07T12:33:58;3.30;99.90
37204;DHT22;23098;48.054;10.636;2022-12-07T12:36:28;3.40;99.90
37204;DHT22;23098;48.054;10.636;2022-12-07T12:39:16;3.40;99.90
37204;DHT22;23098;48.054;10.636;2022-12-07T12:46:58;3.60;99.90
37204;DHT22;23098;48.054;10.636;2022-12-07T12:51:50;3.70;99.90
37204;DHT22;23098;48.054;10.636;2022-12-07T12:54:20;3.60;99.90
37204;DHT22;23098;48.054;10.636;2022-12-07T13:02:26;3.50;99.90
37204;DHT22;23098;48.054;10.636;2022-12-07T13:05:03;3.50;99.90
37204;DHT22;23098;48.054;10.636;2022-12-07T13:12:58;3.40;99.90
37204;DHT22;23098;48.054;10.636;2022-12-07T13:26:20;3.40;99.90
37204;DHT22;23098;48.054;10.636;2022-12-07T13:31:41;3.50;99.90
37204;DHT22;23098;48.054;10.636;2022-12-07T13:36:56;3.40;99.90
37204;DHT22;23098;48.054;10.636;2022-12-07T13:39:24;3.40;99.90
37204;DHT22;23098;48.054;10.636;2022-12-07T13:41:58;3.30;99.90
37204;DHT22;23098;48.054;10.636;2022-12-07T13:44:27;3.40;99.90
37204;DHT22;23098;48.054;10.636;2022-12-07T13:47:09;3.30;99.90
37204;DHT22;23098;48.054;10.636;2022-12-07T13:49:46;3.40;99.90
37204;DHT22;23098;48.054;10.636;2022-12-07T13:54:59;3.30;99.90
37204;DHT22;23098;48.054;10.636;2022-12-07T13:57:27;3.30;99.90
37204;DHT22;23098;48.054;10.636;2022-12-07T13:59:53;3.30;99.90
37204;DHT22;23098;48.054;10.636;2022-12-07T14:05:05;3.40;99.90
37204;DHT22;23098;48.054;10.636;2022-12-07T14:07:30;3.40;99.90
37204;DHT22;23098;48.054;10.636;2022-12-07T14:10:02;3.30;99.90
37204;DHT22;23098;48.054;10.636;2022-12-07T14:12:30;3.20;99.90
37204;DHT22;23098;48.054;10.636;2022-12-07T14:14:57;3.20;99.90
37204;DHT22;23098;48.054;10.636;2022-12-07T14:17:25;3.20;99.90
37204;DHT22;23098;48.054;10.636;2022-12-07T14:19:58;3.10;99.90
37204;DHT22;23098;48.054;10.636;2022-12-07T14:22:33;3.10;99.90
37204;DHT22;23098;48.054;10.636;2022-12-07T14:25:28;3.10;99.90
37204;DHT22;23098;48.054;10.636;2022-12-07T14:28:00;3.10;99.90
37204;DHT22;23098;48.054;10.636;2022-12-07T14:30:32;3.00;99.90
37204;DHT22;23098;48.054;10.636;2022-12-07T14:33:00;3.00;99.90
37204;DHT22;23098;48.054;10.636;2022-12-07T14:35:27;2.90;99.90
37204;DHT22;23098;48.054;10.636;2022-12-07T14:37:53;2.90;99.90
37204;DHT22;23098;48.054;10.636;2022-12-07T14:40:21;2.80;99.90
37204;DHT22;23098;48.054;10.636;2022-12-07T14:42:53;2.80;99.90
37204;DHT22;23098;48.054;10.636;2022-12-07T14:45:22;2.80;99.90
37204;DHT22;23098;48.054;10.636;2022-12-07T14:47:48;2.80;99.90
37204;DHT22;23098;48.054;10.636;2022-12-07T14:50:15;2.70;99.90
37204;DHT22;23098;48.054;10.636;2022-12-07T14:52:42;2.70;99.90
37204;DHT22;23098;48.054;10.636;2022-12-07T14:55:28;2.60;99.90
37204;DHT22;23098;48.054;10.636;2022-12-07T14:57:54;2.60;99.90
37204;DHT22;23098;48.054;10.636;2022-12-07T15:00:21;2.50;99.90
37204;DHT22;23098;48.054;10.636;2022-12-07T15:02:48;2.50;99.90
37204;DHT22;23098;48.054;10.636;2022-12-07T15:05:14;2.50;99.90
37204;DHT22;23098;48.054;10.636;2022-12-07T15:07:40;2.50;99.90
37204;DHT22;23098;48.054;10.636;2022-12-07T15:10:18;2.40;99.90
37204;DHT22;23098;48.054;10.636;2022-12-07T15:12:44;2.40;99.90
37204;DHT22;23098;48.054;10.636;2022-12-07T15:15:10;2.30;99.90
37204;DHT22;23098;48.054;10.636;2022-12-07T15:17:35;2.20;99.90
37204;DHT22;23098;48.054;10.636;2022-12-07T15:20:01;2.10;99.90
37204;DHT22;23098;48.054;10.636;2022-12-07T15:22:26;2.00;99.90
37204;DHT22;23098;48.054;10.636;2022-12-07T15:24:52;1.90;99.90
37204;DHT22;23098;48.054;10.636;2022-12-07T15:27:17;1.90;99.90
37204;DHT22;23098;48.054;10.636;2022-12-07T15:29:43;1.90;99.90
37204;DHT22;23098;48.054;10.636;2022-12-07T15:32:09;1.80;99.90
37204;DHT22;23098;48.054;10.636;2022-12-07T15:34:34;1.70;99.90
37204;DHT22;23098;48.054;10.636;2022-12-07T15:37:00;1.60;99.90
37204;DHT22;23098;48.054;10.636;2022-12-07T15:39:25;1.60;99.90
37204;DHT22;23098;48.054;10.636;2022-12-07T15:41:51;1.50;99.90
37204;DHT22;23098;48.054;10.636;2022-12-07T15:44:16;1.40;99.90
37204;DHT22;23098;48.054;10.636;2022-12-07T15:47:00;1.30;99.90
37204;DHT22;23098;48.054;10.636;2022-12-07T15:49:26;1.20;99.90
37204;DHT22;23098;48.054;10.636;2022-12-07T15:51:53;1.10;99.90
37204;DHT22;23098;48.054;10.636;2022-12-07T15:54:28;1.10;99.90
37204;DHT22;23098;48.054;10.636;2022-12-07T15:56:54;1.10;99.90
37204;DHT22;23098;48.054;10.636;2022-12-07T15:59:20;1.10;99.90
37204;DHT22;23098;48.054;10.636;2022-12-07T16:01:46;1.10;99.90
37204;DHT22;23098;48.054;10.636;2022-12-07T16:04:11;1.10;99.90
37204;DHT22;23098;48.054;10.636;2022-12-07T16:06:37;1.10;99.90
37204;DHT22;23098;48.054;10.636;2022-12-07T16:09:03;1.00;99.90
37204;DHT22;23098;48.054;10.636;2022-12-07T16:11:29;0.90;99.90
37204;DHT22;23098;48.054;10.636;2022-12-07T16:13:54;0.90;99.90
37204;DHT22;23098;48.054;10.636;2022-12-07T16:16:20;0.90;99.90
37204;DHT22;23098;48.054;10.636;2022-12-07T16:18:47;0.90;99.90
37204;DHT22;23098;48.054;10.636;2022-12-07T16:21:14;0.90;99.90
37204;DHT22;23098;48.054;10.636;2022-12-07T16:23:40;0.90;99.90
37204;DHT22;23098;48.054;10.636;2022-12-07T16:26:07;0.80;99.90
37204;DHT22;23098;48.054;10.636;2022-12-07T16:28:34;0.70;99.90
37204;DHT22;23098;48.054;10.636;2022-12-07T16:31:08;0.60;99.90
37204;DHT22;23098;48.054;10.636;2022-12-07T16:33:35;0.50;99.90
37204;DHT22;23098;48.054;10.636;2022-12-07T16:36:02;0.40;99.90
37204;DHT22;23098;48.054;10.636;2022-12-07T16:38:28;0.40;99.90
37204;DHT22;23098;48.054;10.636;2022-12-07T16:40:54;0.30;99.90
37204;DHT22;23098;48.054;10.636;2022-12-07T16:43:20;0.20;99.90
37204;DHT22;23098;48.054;10.636;2022-12-07T16:45:49;0.20;99.90
37204;DHT22;23098;48.054;10.636;2022-12-07T16:48:15;0.20;99.90
37204;DHT22;23098;48.054;10.636;2022-12-07T16:50:41;0.10;99.90
37204;DHT22;23098;48.054;10.636;2022-12-07T16:53:09;0.10;99.90
37204;DHT22;23098;48.054;10.636;2022-12-07T16:55:42;0.10;99.90
37204;DHT22;23098;48.054;10.636;2022-12-07T16:58:09;0.00;99.90
37204;DHT22;23098;48.054;10.636;2022-12-07T17:00:35;-0.10;99.90
37204;DHT22;23098;48.054;10.636;2022-12-07T17:03:01;-0.10;99.90
37204;DHT22;23098;48.054;10.636;2022-12-07T17:05:27;-0.10;99.90
37204;DHT22;23098;48.054;10.636;2022-12-07T17:07:55;-0.10;99.90
37204;DHT22;23098;48.054;10.636;2022-12-07T17:10:20;-0.10;99.90
37204;DHT22;23098;48.054;10.636;2022-12-07T17:12:46;0.00;99.90
37204;DHT22;23098;48.054;10.636;2022-12-07T17:15:12;0.00;99.90
37204;DHT22;23098;48.054;10.636;2022-12-07T17:17:44;0.10;99.90